sensor_id;sensor_type;location;lat;lon;timestamp;P1;durP1;ratioP1;P2;durP2;ratioP2
53903;SDS011;39812;52.430;16.936;2022-11-15T00:01:28;135.48;;;37.20;;
53903;SDS011;39812;52.430;16.936;2022-11-15T00:03:53;115.75;;;39.22;;
53903;SDS011;39812;52.430;16.936;2022-11-15T00:06:18;100.97;;;36.95;;
53903;SDS011;39812;52.430;16.936;2022-11-15T00:08:44;117.10;;;38.00;;
53903;SDS011;39812;52.430;16.936;2022-11-15T00:11:10;109.57;;;36.60;;
53903;SDS011;39812;52.430;16.936;2022-11-15T00:13:36;135.48;;;38.95;;
53903;SDS011;39812;52.430;16.936;2022-11-15T00:16:02;110.45;;;37.42;;
53903;SDS011;39812;52.430;16.936;2022-11-15T00:18:28;103.95;;;35.63;;
53903;SDS011;39812;52.430;16.936;2022-11-15T00:20:54;125.78;;;37.83;;
53903;SDS011;39812;52.430;16.936;2022-11-15T00:23:20;99.25;;;36.70;;
53903;SDS011;39812;52.430;16.936;2022-11-15T00:25:46;119.07;;;38.92;;
53903;SDS011;39812;52.430;16.936;2022-11-15T00:28:11;104.97;;;38.67;;
53903;SDS011;39812;52.430;16.936;2022-11-15T00:30:37;118.68;;;41.15;;
53903;SDS011;39812;52.430;16.936;2022-11-15T00:33:06;118.57;;;40.63;;
53903;SDS011;39812;52.430;16.936;2022-11-15T00:35:32;116.40;;;38.88;;
53903;SDS011;39812;52.430;16.936;2022-11-15T00:37:59;127.97;;;41.88;;
53903;SDS011;39812;52.430;16.936;2022-11-15T00:40:24;124.20;;;38.03;;
53903;SDS011;39812;52.430;16.936;2022-11-15T00:42:50;119.70;;;40.85;;
53903;SDS011;39812;52.430;16.936;2022-11-15T00:45:15;124.38;;;38.67;;
53903;SDS011;39812;52.430;16.936;2022-11-15T00:47:43;130.88;;;43.00;;
53903;SDS011;39812;52.430;16.936;2022-11-15T00:50:10;106.50;;;37.33;;
53903;SDS011;39812;52.430;16.936;2022-11-15T00:52:35;112.43;;;38.03;;
53903;SDS011;39812;52.430;16.936;2022-11-15T00:55:01;113.65;;;39.22;;
53903;SDS011;39812;52.430;16.936;2022-11-15T00:57:27;107.93;;;38.67;;
53903;SDS011;39812;52.430;16.936;2022-11-15T00:59:52;125.72;;;38.35;;
53903;SDS011;39812;52.430;16.936;2022-11-15T01:02:17;109.13;;;36.80;;
53903;SDS011;39812;52.430;16.936;2022-11-15T01:04:43;104.72;;;37.10;;
53903;SDS011;39812;52.430;16.936;2022-11-15T01:07:08;112.28;;;39.30;;
53903;SDS011;39812;52.430;16.936;2022-11-15T01:09:34;107.82;;;38.03;;
53903;SDS011;39812;52.430;16.936;2022-11-15T01:11:59;109.47;;;38.33;;
53903;SDS011;39812;52.430;16.936;2022-11-15T01:14:25;115.82;;;39.83;;
53903;SDS011;39812;52.430;16.936;2022-11-15T01:16:50;106.07;;;36.88;;
53903;SDS011;39812;52.430;16.936;2022-11-15T01:19:16;118.57;;;38.33;;
53903;SDS011;39812;52.430;16.936;2022-11-15T01:21:41;120.82;;;38.67;;
53903;SDS011;39812;52.430;16.936;2022-11-15T01:24:07;103.90;;;37.50;;
53903;SDS011;39812;52.430;16.936;2022-11-15T01:26:36;122.65;;;38.75;;
53903;SDS011;39812;52.430;16.936;2022-11-15T01:29:02;111.65;;;38.05;;
53903;SDS011;39812;52.430;16.936;2022-11-15T01:31:28;114.90;;;38.90;;
53903;SDS011;39812;52.430;16.936;2022-11-15T01:33:53;101.97;;;36.72;;
53903;SDS011;39812;52.430;16.936;2022-11-15T01:36:20;94.57;;;36.38;;
53903;SDS011;39812;52.430;16.936;2022-11-15T01:38:55;98.78;;;36.17;;
53903;SDS011;39812;52.430;16.936;2022-11-15T01:41:26;100.68;;;35.15;;
53903;SDS011;39812;52.430;16.936;2022-11-15T01:43:57;115.22;;;38.47;;
53903;SDS011;39812;52.430;16.936;2022-11-15T01:46:58;105.15;;;36.53;;
53903;SDS011;39812;52.430;16.936;2022-11-15T01:49:26;107.10;;;35.10;;
53903;SDS011;39812;52.430;16.936;2022-11-15T01:51:53;102.68;;;37.10;;
53903;SDS011;39812;52.430;16.936;2022-11-15T01:54:20;105.55;;;36.05;;
53903;SDS011;39812;52.430;16.936;2022-11-15T01:56:48;100.93;;;36.72;;
53903;SDS011;39812;52.430;16.936;2022-11-15T01:59:18;122.40;;;37.45;;
53903;SDS011;39812;52.430;16.936;2022-11-15T02:01:44;95.85;;;35.63;;
53903;SDS011;39812;52.430;16.936;2022-11-15T02:04:14;99.40;;;35.80;;
53903;SDS011;39812;52.430;16.936;2022-11-15T02:06:44;100.88;;;34.65;;
53903;SDS011;39812;52.430;16.936;2022-11-15T02:09:10;98.10;;;35.85;;
53903;SDS011;39812;52.430;16.936;2022-11-15T02:11:36;92.90;;;34.60;;
53903;SDS011;39812;52.430;16.936;2022-11-15T02:14:02;92.80;;;36.53;;
53903;SDS011;39812;52.430;16.936;2022-11-15T02:22:12;104.45;;;36.88;;
53903;SDS011;39812;52.430;16.936;2022-11-15T02:27:53;95.65;;;34.75;;
53903;SDS011;39812;52.430;16.936;2022-11-15T02:30:52;86.72;;;33.83;;
53903;SDS011;39812;52.430;16.936;2022-11-15T02:33:34;84.03;;;31.02;;
53903;SDS011;39812;52.430;16.936;2022-11-15T02:36:10;95.97;;;34.17;;
53903;SDS011;39812;52.430;16.936;2022-11-15T02:38:52;91.82;;;35.88;;
53903;SDS011;39812;52.430;16.936;2022-11-15T02:41:30;95.07;;;34.38;;
53903;SDS011;39812;52.430;16.936;2022-11-15T02:44:31;102.53;;;33.75;;
53903;SDS011;39812;52.430;16.936;2022-11-15T02:49:39;81.70;;;31.63;;
53903;SDS011;39812;52.430;16.936;2022-11-15T02:52:08;85.30;;;31.50;;
53903;SDS011;39812;52.430;16.936;2022-11-15T02:54:34;83.32;;;30.35;;
53903;SDS011;39812;52.430;16.936;2022-11-15T02:57:01;93.40;;;33.88;;
53903;SDS011;39812;52.430;16.936;2022-11-15T02:59:43;89.40;;;32.08;;
53903;SDS011;39812;52.430;16.936;2022-11-15T03:02:15;86.97;;;32.72;;
53903;SDS011;39812;52.430;16.936;2022-11-15T03:05:02;89.35;;;31.55;;
53903;SDS011;39812;52.430;16.936;2022-11-15T03:07:42;92.88;;;33.30;;
53903;SDS011;39812;52.430;16.936;2022-11-15T03:13:16;99.97;;;33.05;;
53903;SDS011;39812;52.430;16.936;2022-11-15T03:15:46;98.25;;;33.60;;
53903;SDS011;39812;52.430;16.936;2022-11-15T03:18:43;86.32;;;32.95;;
53903;SDS011;39812;52.430;16.936;2022-11-15T03:21:09;80.93;;;32.35;;
53903;SDS011;39812;52.430;16.936;2022-11-15T03:23:37;74.63;;;28.83;;
53903;SDS011;39812;52.430;16.936;2022-11-15T03:26:05;90.35;;;31.85;;
53903;SDS011;39812;52.430;16.936;2022-11-15T03:28:50;72.38;;;31.38;;
53903;SDS011;39812;52.430;16.936;2022-11-15T03:31:27;69.72;;;29.92;;
53903;SDS011;39812;52.430;16.936;2022-11-15T03:37:04;81.22;;;31.27;;
53903;SDS011;39812;52.430;16.936;2022-11-15T03:39:30;67.47;;;29.45;;
53903;SDS011;39812;52.430;16.936;2022-11-15T03:42:15;81.07;;;31.05;;
53903;SDS011;39812;52.430;16.936;2022-11-15T03:47:32;66.88;;;30.73;;
53903;SDS011;39812;52.430;16.936;2022-11-15T03:50:10;89.22;;;33.22;;
53903;SDS011;39812;52.430;16.936;2022-11-15T03:52:39;70.43;;;29.35;;
53903;SDS011;39812;52.430;16.936;2022-11-15T03:55:07;74.68;;;29.67;;
53903;SDS011;39812;52.430;16.936;2022-11-15T03:57:36;78.20;;;31.55;;
53903;SDS011;39812;52.430;16.936;2022-11-15T04:00:03;78.50;;;31.50;;
53903;SDS011;39812;52.430;16.936;2022-11-15T04:02:29;80.78;;;33.60;;
53903;SDS011;39812;52.430;16.936;2022-11-15T04:04:54;77.50;;;32.63;;
53903;SDS011;39812;52.430;16.936;2022-11-15T04:07:20;83.57;;;32.03;;
53903;SDS011;39812;52.430;16.936;2022-11-15T04:09:45;86.55;;;31.10;;
53903;SDS011;39812;52.430;16.936;2022-11-15T04:17:32;77.68;;;30.77;;
53903;SDS011;39812;52.430;16.936;2022-11-15T04:19:58;68.68;;;30.85;;
53903;SDS011;39812;52.430;16.936;2022-11-15T04:22:43;78.33;;;31.90;;
53903;SDS011;39812;52.430;16.936;2022-11-15T04:25:27;70.53;;;29.75;;
53903;SDS011;39812;52.430;16.936;2022-11-15T04:27:53;96.03;;;31.77;;
53903;SDS011;39812;52.430;16.936;2022-11-15T04:30:18;66.30;;;29.77;;
53903;SDS011;39812;52.430;16.936;2022-11-15T04:32:44;72.53;;;30.27;;
53903;SDS011;39812;52.430;16.936;2022-11-15T04:35:09;79.82;;;32.15;;
53903;SDS011;39812;52.430;16.936;2022-11-15T04:37:35;78.00;;;30.13;;
53903;SDS011;39812;52.430;16.936;2022-11-15T04:40:00;77.00;;;30.92;;
53903;SDS011;39812;52.430;16.936;2022-11-15T04:42:26;79.38;;;31.23;;
53903;SDS011;39812;52.430;16.936;2022-11-15T04:44:51;89.68;;;30.85;;
53903;SDS011;39812;52.430;16.936;2022-11-15T04:47:16;85.18;;;32.33;;
53903;SDS011;39812;52.430;16.936;2022-11-15T04:49:42;71.38;;;30.35;;
53903;SDS011;39812;52.430;16.936;2022-11-15T04:52:08;76.25;;;31.00;;
53903;SDS011;39812;52.430;16.936;2022-11-15T04:54:34;75.50;;;30.08;;
53903;SDS011;39812;52.430;16.936;2022-11-15T04:56:59;83.38;;;32.80;;
53903;SDS011;39812;52.430;16.936;2022-11-15T04:59:25;67.85;;;31.45;;
53903;SDS011;39812;52.430;16.936;2022-11-15T05:01:51;89.90;;;31.10;;
53903;SDS011;39812;52.430;16.936;2022-11-15T05:04:16;72.63;;;31.88;;
53903;SDS011;39812;52.430;16.936;2022-11-15T05:06:46;87.60;;;31.20;;
53903;SDS011;39812;52.430;16.936;2022-11-15T05:09:12;77.80;;;29.75;;
53903;SDS011;39812;52.430;16.936;2022-11-15T05:11:38;78.63;;;30.17;;
53903;SDS011;39812;52.430;16.936;2022-11-15T05:14:04;77.32;;;31.13;;
53903;SDS011;39812;52.430;16.936;2022-11-15T05:16:30;75.80;;;31.30;;
53903;SDS011;39812;52.430;16.936;2022-11-15T05:18:55;74.32;;;31.30;;
53903;SDS011;39812;52.430;16.936;2022-11-15T05:21:21;92.50;;;31.23;;
53903;SDS011;39812;52.430;16.936;2022-11-15T05:23:47;78.25;;;31.17;;
53903;SDS011;39812;52.430;16.936;2022-11-15T05:26:12;77.90;;;31.05;;
53903;SDS011;39812;52.430;16.936;2022-11-15T05:28:39;80.45;;;32.05;;
53903;SDS011;39812;52.430;16.936;2022-11-15T05:31:09;85.88;;;34.45;;
53903;SDS011;39812;52.430;16.936;2022-11-15T05:33:39;90.43;;;31.70;;
53903;SDS011;39812;52.430;16.936;2022-11-15T05:36:14;87.00;;;29.38;;
53903;SDS011;39812;52.430;16.936;2022-11-15T05:38:44;90.50;;;34.17;;
53903;SDS011;39812;52.430;16.936;2022-11-15T05:41:12;86.63;;;35.05;;
53903;SDS011;39812;52.430;16.936;2022-11-15T05:43:38;87.90;;;32.63;;
53903;SDS011;39812;52.430;16.936;2022-11-15T05:46:05;87.82;;;33.08;;
53903;SDS011;39812;52.430;16.936;2022-11-15T05:48:31;97.60;;;34.60;;
53903;SDS011;39812;52.430;16.936;2022-11-15T05:50:59;88.47;;;32.95;;
53903;SDS011;39812;52.430;16.936;2022-11-15T05:53:25;77.38;;;32.45;;
53903;SDS011;39812;52.430;16.936;2022-11-15T05:55:51;87.63;;;32.45;;
53903;SDS011;39812;52.430;16.936;2022-11-15T05:58:17;84.38;;;31.77;;
53903;SDS011;39812;52.430;16.936;2022-11-15T06:00:43;68.93;;;28.80;;
53903;SDS011;39812;52.430;16.936;2022-11-15T06:03:09;80.53;;;31.27;;
53903;SDS011;39812;52.430;16.936;2022-11-15T06:05:35;82.60;;;32.13;;
53903;SDS011;39812;52.430;16.936;2022-11-15T06:08:00;77.85;;;31.08;;
53903;SDS011;39812;52.430;16.936;2022-11-15T06:10:26;82.05;;;31.45;;
53903;SDS011;39812;52.430;16.936;2022-11-15T06:13:01;75.15;;;31.10;;
53903;SDS011;39812;52.430;16.936;2022-11-15T06:15:28;77.00;;;33.83;;
53903;SDS011;39812;52.430;16.936;2022-11-15T06:17:57;83.80;;;32.13;;
53903;SDS011;39812;52.430;16.936;2022-11-15T06:20:26;78.60;;;31.85;;
53903;SDS011;39812;52.430;16.936;2022-11-15T06:22:56;74.97;;;31.00;;
53903;SDS011;39812;52.430;16.936;2022-11-15T06:25:22;75.53;;;29.85;;
53903;SDS011;39812;52.430;16.936;2022-11-15T06:27:52;77.70;;;31.33;;
53903;SDS011;39812;52.430;16.936;2022-11-15T06:30:18;68.03;;;27.90;;
53903;SDS011;39812;52.430;16.936;2022-11-15T06:32:44;76.43;;;30.77;;
53903;SDS011;39812;52.430;16.936;2022-11-15T06:35:10;80.78;;;31.27;;
53903;SDS011;39812;52.430;16.936;2022-11-15T06:37:35;74.78;;;30.45;;
53903;SDS011;39812;52.430;16.936;2022-11-15T06:40:01;75.00;;;33.55;;
53903;SDS011;39812;52.430;16.936;2022-11-15T06:42:27;74.13;;;29.73;;
53903;SDS011;39812;52.430;16.936;2022-11-15T06:44:52;76.68;;;30.27;;
53903;SDS011;39812;52.430;16.936;2022-11-15T06:47:17;88.60;;;32.33;;
53903;SDS011;39812;52.430;16.936;2022-11-15T06:49:43;80.75;;;31.60;;
53903;SDS011;39812;52.430;16.936;2022-11-15T06:52:08;76.82;;;30.35;;
53903;SDS011;39812;52.430;16.936;2022-11-15T06:54:34;73.05;;;31.60;;
53903;SDS011;39812;52.430;16.936;2022-11-15T06:56:59;73.45;;;30.33;;
53903;SDS011;39812;52.430;16.936;2022-11-15T06:59:25;75.90;;;30.60;;
53903;SDS011;39812;52.430;16.936;2022-11-15T07:01:50;75.93;;;31.23;;
53903;SDS011;39812;52.430;16.936;2022-11-15T07:04:16;81.22;;;29.83;;
53903;SDS011;39812;52.430;16.936;2022-11-15T07:06:41;69.03;;;29.10;;
53903;SDS011;39812;52.430;16.936;2022-11-15T07:09:07;67.00;;;27.33;;
53903;SDS011;39812;52.430;16.936;2022-11-15T07:11:32;64.93;;;27.02;;
53903;SDS011;39812;52.430;16.936;2022-11-15T07:13:59;65.47;;;28.02;;
53903;SDS011;39812;52.430;16.936;2022-11-15T07:16:25;71.55;;;29.75;;
53903;SDS011;39812;52.430;16.936;2022-11-15T07:18:50;66.13;;;28.90;;
53903;SDS011;39812;52.430;16.936;2022-11-15T07:21:16;70.68;;;29.15;;
53903;SDS011;39812;52.430;16.936;2022-11-15T07:23:41;69.38;;;30.17;;
53903;SDS011;39812;52.430;16.936;2022-11-15T07:26:07;69.32;;;29.50;;
53903;SDS011;39812;52.430;16.936;2022-11-15T07:28:33;70.07;;;27.33;;
53903;SDS011;39812;52.430;16.936;2022-11-15T07:31:01;68.78;;;30.85;;
53903;SDS011;39812;52.430;16.936;2022-11-15T07:33:30;62.80;;;27.55;;
53903;SDS011;39812;52.430;16.936;2022-11-15T07:35:58;59.35;;;27.08;;
53903;SDS011;39812;52.430;16.936;2022-11-15T07:38:26;63.00;;;28.42;;
53903;SDS011;39812;52.430;16.936;2022-11-15T07:40:56;61.05;;;27.52;;
53903;SDS011;39812;52.430;16.936;2022-11-15T07:43:25;65.80;;;25.92;;
53903;SDS011;39812;52.430;16.936;2022-11-15T07:45:52;58.97;;;25.75;;
53903;SDS011;39812;52.430;16.936;2022-11-15T07:48:18;55.63;;;25.02;;
53903;SDS011;39812;52.430;16.936;2022-11-15T07:50:43;63.20;;;25.73;;
53903;SDS011;39812;52.430;16.936;2022-11-15T07:53:09;54.72;;;25.00;;
53903;SDS011;39812;52.430;16.936;2022-11-15T07:55:35;56.95;;;26.02;;
53903;SDS011;39812;52.430;16.936;2022-11-15T07:58:02;56.70;;;26.00;;
53903;SDS011;39812;52.430;16.936;2022-11-15T08:00:29;56.67;;;26.38;;
53903;SDS011;39812;52.430;16.936;2022-11-15T08:03:01;57.67;;;25.08;;
53903;SDS011;39812;52.430;16.936;2022-11-15T08:05:35;77.22;;;33.05;;
53903;SDS011;39812;52.430;16.936;2022-11-15T08:08:02;54.63;;;25.95;;
53903;SDS011;39812;52.430;16.936;2022-11-15T08:10:28;62.78;;;26.58;;
53903;SDS011;39812;52.430;16.936;2022-11-15T08:13:00;58.55;;;26.83;;
53903;SDS011;39812;52.430;16.936;2022-11-15T08:15:27;54.30;;;25.48;;
53903;SDS011;39812;52.430;16.936;2022-11-15T08:17:54;56.65;;;24.27;;
53903;SDS011;39812;52.430;16.936;2022-11-15T08:20:20;53.65;;;25.00;;
53903;SDS011;39812;52.430;16.936;2022-11-15T08:22:46;62.03;;;28.75;;
53903;SDS011;39812;52.430;16.936;2022-11-15T08:25:11;63.40;;;28.10;;
53903;SDS011;39812;52.430;16.936;2022-11-15T08:27:37;60.58;;;26.95;;
53903;SDS011;39812;52.430;16.936;2022-11-15T08:30:03;62.80;;;27.70;;
53903;SDS011;39812;52.430;16.936;2022-11-15T08:32:30;63.78;;;27.98;;
53903;SDS011;39812;52.430;16.936;2022-11-15T08:34:55;57.33;;;27.63;;
53903;SDS011;39812;52.430;16.936;2022-11-15T08:37:21;55.95;;;26.10;;
53903;SDS011;39812;52.430;16.936;2022-11-15T08:39:46;62.85;;;27.65;;
53903;SDS011;39812;52.430;16.936;2022-11-15T08:42:12;58.78;;;26.85;;
53903;SDS011;39812;52.430;16.936;2022-11-15T08:44:39;60.10;;;27.17;;
53903;SDS011;39812;52.430;16.936;2022-11-15T08:47:05;61.50;;;25.45;;
53903;SDS011;39812;52.430;16.936;2022-11-15T08:49:30;59.50;;;27.15;;
53903;SDS011;39812;52.430;16.936;2022-11-15T08:51:56;63.42;;;28.98;;
53903;SDS011;39812;52.430;16.936;2022-11-15T08:54:21;63.08;;;28.17;;
53903;SDS011;39812;52.430;16.936;2022-11-15T08:56:47;70.10;;;28.85;;
53903;SDS011;39812;52.430;16.936;2022-11-15T08:59:12;57.45;;;25.67;;
53903;SDS011;39812;52.430;16.936;2022-11-15T09:01:38;57.15;;;27.08;;
53903;SDS011;39812;52.430;16.936;2022-11-15T09:04:03;60.58;;;27.98;;
53903;SDS011;39812;52.430;16.936;2022-11-15T09:06:29;61.33;;;26.95;;
53903;SDS011;39812;52.430;16.936;2022-11-15T09:08:55;59.50;;;26.90;;
53903;SDS011;39812;52.430;16.936;2022-11-15T09:11:21;65.32;;;28.55;;
53903;SDS011;39812;52.430;16.936;2022-11-15T09:13:48;61.10;;;27.88;;
53903;SDS011;39812;52.430;16.936;2022-11-15T09:16:14;64.25;;;28.52;;
53903;SDS011;39812;52.430;16.936;2022-11-15T09:18:40;67.30;;;27.08;;
53903;SDS011;39812;52.430;16.936;2022-11-15T09:21:06;61.40;;;26.67;;
53903;SDS011;39812;52.430;16.936;2022-11-15T09:23:32;69.93;;;29.63;;
53903;SDS011;39812;52.430;16.936;2022-11-15T09:26:01;61.95;;;29.27;;
53903;SDS011;39812;52.430;16.936;2022-11-15T09:28:28;69.65;;;28.00;;
53903;SDS011;39812;52.430;16.936;2022-11-15T09:30:58;62.75;;;29.90;;
53903;SDS011;39812;52.430;16.936;2022-11-15T09:33:25;62.20;;;29.05;;
53903;SDS011;39812;52.430;16.936;2022-11-15T09:35:51;64.75;;;28.27;;
53903;SDS011;39812;52.430;16.936;2022-11-15T09:38:16;64.03;;;28.70;;
53903;SDS011;39812;52.430;16.936;2022-11-15T09:40:42;61.40;;;29.05;;
53903;SDS011;39812;52.430;16.936;2022-11-15T09:43:11;55.17;;;28.17;;
53903;SDS011;39812;52.430;16.936;2022-11-15T09:46:05;67.38;;;29.33;;
53903;SDS011;39812;52.430;16.936;2022-11-15T09:48:43;62.25;;;27.90;;
53903;SDS011;39812;52.430;16.936;2022-11-15T09:51:18;63.92;;;29.00;;
53903;SDS011;39812;52.430;16.936;2022-11-15T09:56:29;65.45;;;27.70;;
53903;SDS011;39812;52.430;16.936;2022-11-15T09:59:00;60.30;;;26.77;;
53903;SDS011;39812;52.430;16.936;2022-11-15T10:04:06;59.72;;;27.73;;
53903;SDS011;39812;52.430;16.936;2022-11-15T10:06:32;60.60;;;29.70;;
53903;SDS011;39812;52.430;16.936;2022-11-15T10:09:03;63.55;;;28.35;;
53903;SDS011;39812;52.430;16.936;2022-11-15T10:11:36;72.35;;;30.10;;
53903;SDS011;39812;52.430;16.936;2022-11-15T10:14:05;70.30;;;30.58;;
53903;SDS011;39812;52.430;16.936;2022-11-15T10:16:55;68.45;;;30.02;;
53903;SDS011;39812;52.430;16.936;2022-11-15T10:20:02;70.75;;;30.02;;
53903;SDS011;39812;52.430;16.936;2022-11-15T10:22:38;66.82;;;29.83;;
53903;SDS011;39812;52.430;16.936;2022-11-15T10:27:33;64.25;;;29.55;;
53903;SDS011;39812;52.430;16.936;2022-11-15T10:30:00;68.80;;;28.67;;
53903;SDS011;39812;52.430;16.936;2022-11-15T10:32:25;66.88;;;30.67;;
53903;SDS011;39812;52.430;16.936;2022-11-15T10:34:52;72.57;;;30.98;;
53903;SDS011;39812;52.430;16.936;2022-11-15T10:37:30;69.32;;;28.58;;
53903;SDS011;39812;52.430;16.936;2022-11-15T10:40:04;69.72;;;29.60;;
53903;SDS011;39812;52.430;16.936;2022-11-15T10:42:41;66.10;;;29.23;;
53903;SDS011;39812;52.430;16.936;2022-11-15T10:47:52;67.40;;;29.85;;
53903;SDS011;39812;52.430;16.936;2022-11-15T10:50:30;70.18;;;29.98;;
53903;SDS011;39812;52.430;16.936;2022-11-15T10:52:57;74.20;;;28.85;;
53903;SDS011;39812;52.430;16.936;2022-11-15T10:55:26;70.82;;;30.23;;
53903;SDS011;39812;52.430;16.936;2022-11-15T10:58:02;69.13;;;31.02;;
53903;SDS011;39812;52.430;16.936;2022-11-15T11:00:32;72.03;;;31.77;;
53903;SDS011;39812;52.430;16.936;2022-11-15T11:03:43;68.88;;;30.73;;
53903;SDS011;39812;52.430;16.936;2022-11-15T11:08:33;64.68;;;28.27;;
53903;SDS011;39812;52.430;16.936;2022-11-15T11:10:59;74.63;;;31.38;;
53903;SDS011;39812;52.430;16.936;2022-11-15T11:13:36;62.00;;;29.38;;
53903;SDS011;39812;52.430;16.936;2022-11-15T11:16:25;70.57;;;30.73;;
53903;SDS011;39812;52.430;16.936;2022-11-15T11:21:46;63.70;;;27.40;;
53903;SDS011;39812;52.430;16.936;2022-11-15T11:24:44;61.88;;;28.45;;
53903;SDS011;39812;52.430;16.936;2022-11-15T11:27:33;70.95;;;31.45;;
53903;SDS011;39812;52.430;16.936;2022-11-15T11:30:14;78.30;;;33.63;;
53903;SDS011;39812;52.430;16.936;2022-11-15T11:33:07;78.35;;;32.25;;
53903;SDS011;39812;52.430;16.936;2022-11-15T11:38:32;76.15;;;33.33;;
53903;SDS011;39812;52.430;16.936;2022-11-15T11:41:10;75.07;;;32.08;;
53903;SDS011;39812;52.430;16.936;2022-11-15T11:46:25;77.00;;;32.53;;
53903;SDS011;39812;52.430;16.936;2022-11-15T11:49:08;75.80;;;31.75;;
53903;SDS011;39812;52.430;16.936;2022-11-15T11:51:43;76.70;;;32.33;;
53903;SDS011;39812;52.430;16.936;2022-11-15T11:54:20;77.35;;;32.25;;
53903;SDS011;39812;52.430;16.936;2022-11-15T11:57:02;75.15;;;31.67;;
53903;SDS011;39812;52.430;16.936;2022-11-15T11:59:43;80.43;;;33.35;;
53903;SDS011;39812;52.430;16.936;2022-11-15T12:02:31;71.72;;;32.80;;
53903;SDS011;39812;52.430;16.936;2022-11-15T12:05:03;70.95;;;29.73;;
53903;SDS011;39812;52.430;16.936;2022-11-15T12:07:35;75.95;;;30.95;;
53903;SDS011;39812;52.430;16.936;2022-11-15T12:10:05;70.50;;;31.40;;
53903;SDS011;39812;52.430;16.936;2022-11-15T12:12:56;79.85;;;33.35;;
53903;SDS011;39812;52.430;16.936;2022-11-15T12:15:27;77.40;;;32.78;;
53903;SDS011;39812;52.430;16.936;2022-11-15T12:17:57;82.82;;;33.35;;
53903;SDS011;39812;52.430;16.936;2022-11-15T12:20:26;87.35;;;34.60;;
53903;SDS011;39812;52.430;16.936;2022-11-15T12:22:56;87.55;;;36.35;;
53903;SDS011;39812;52.430;16.936;2022-11-15T12:25:48;86.50;;;33.50;;
53903;SDS011;39812;52.430;16.936;2022-11-15T12:28:33;84.05;;;33.10;;
53903;SDS011;39812;52.430;16.936;2022-11-15T12:31:17;90.65;;;37.15;;
53903;SDS011;39812;52.430;16.936;2022-11-15T12:34:00;86.13;;;34.97;;
53903;SDS011;39812;52.430;16.936;2022-11-15T12:36:35;92.22;;;36.83;;
53903;SDS011;39812;52.430;16.936;2022-11-15T12:39:12;80.15;;;33.60;;
53903;SDS011;39812;52.430;16.936;2022-11-15T12:41:40;89.40;;;35.05;;
53903;SDS011;39812;52.430;16.936;2022-11-15T12:44:11;78.00;;;34.00;;
53903;SDS011;39812;52.430;16.936;2022-11-15T12:54:47;89.07;;;35.28;;
53903;SDS011;39812;52.430;16.936;2022-11-15T13:02:30;83.40;;;35.95;;
53903;SDS011;39812;52.430;16.936;2022-11-15T13:22:48;86.25;;;33.78;;
53903;SDS011;39812;52.430;16.936;2022-11-15T13:28:32;95.13;;;37.20;;
53903;SDS011;39812;52.430;16.936;2022-11-15T13:31:19;91.72;;;37.30;;
53903;SDS011;39812;52.430;16.936;2022-11-15T13:33:50;95.30;;;35.28;;
53903;SDS011;39812;52.430;16.936;2022-11-15T13:36:21;99.65;;;37.15;;
53903;SDS011;39812;52.430;16.936;2022-11-15T13:39:02;97.35;;;35.55;;
53903;SDS011;39812;52.430;16.936;2022-11-15T13:41:30;100.20;;;38.83;;
53903;SDS011;39812;52.430;16.936;2022-11-15T13:43:58;97.53;;;35.17;;
53903;SDS011;39812;52.430;16.936;2022-11-15T13:46:28;96.15;;;36.08;;
53903;SDS011;39812;52.430;16.936;2022-11-15T13:49:03;91.72;;;36.33;;
53903;SDS011;39812;52.430;16.936;2022-11-15T13:51:32;94.50;;;37.40;;
53903;SDS011;39812;52.430;16.936;2022-11-15T13:54:25;98.40;;;36.10;;
53903;SDS011;39812;52.430;16.936;2022-11-15T13:56:53;102.78;;;37.85;;
53903;SDS011;39812;52.430;16.936;2022-11-15T13:59:49;104.82;;;37.90;;
53903;SDS011;39812;52.430;16.936;2022-11-15T14:02:18;124.20;;;38.80;;
53903;SDS011;39812;52.430;16.936;2022-11-15T14:05:31;89.85;;;36.70;;
53903;SDS011;39812;52.430;16.936;2022-11-15T14:07:52;99.75;;;36.97;;
53903;SDS011;39812;52.430;16.936;2022-11-15T14:10:36;100.40;;;36.45;;
53903;SDS011;39812;52.430;16.936;2022-11-15T14:13:03;98.60;;;37.22;;
53903;SDS011;39812;52.430;16.936;2022-11-15T14:15:36;94.18;;;35.30;;
53903;SDS011;39812;52.430;16.936;2022-11-15T14:18:03;104.18;;;36.42;;
53903;SDS011;39812;52.430;16.936;2022-11-15T14:20:36;91.35;;;33.80;;
53903;SDS011;39812;52.430;16.936;2022-11-15T14:23:25;118.40;;;40.60;;
53903;SDS011;39812;52.430;16.936;2022-11-15T14:25:56;113.47;;;40.15;;
53903;SDS011;39812;52.430;16.936;2022-11-15T14:30:48;106.93;;;36.90;;
53903;SDS011;39812;52.430;16.936;2022-11-15T14:35:44;88.15;;;34.95;;
53903;SDS011;39812;52.430;16.936;2022-11-15T14:38:11;88.40;;;33.78;;
53903;SDS011;39812;52.430;16.936;2022-11-15T14:40:36;89.72;;;36.35;;
53903;SDS011;39812;52.430;16.936;2022-11-15T14:43:01;89.63;;;34.50;;
53903;SDS011;39812;52.430;16.936;2022-11-15T14:45:27;80.15;;;32.13;;
53903;SDS011;39812;52.430;16.936;2022-11-15T14:47:53;78.78;;;31.77;;
53903;SDS011;39812;52.430;16.936;2022-11-15T14:50:19;82.70;;;31.98;;
53903;SDS011;39812;52.430;16.936;2022-11-15T14:52:45;73.85;;;31.10;;
53903;SDS011;39812;52.430;16.936;2022-11-15T14:57:51;71.47;;;30.30;;
53903;SDS011;39812;52.430;16.936;2022-11-15T15:00:20;72.90;;;29.20;;
53903;SDS011;39812;52.430;16.936;2022-11-15T15:02:46;69.60;;;27.83;;
53903;SDS011;39812;52.430;16.936;2022-11-15T15:05:20;76.97;;;30.60;;
53903;SDS011;39812;52.430;16.936;2022-11-15T15:07:45;73.47;;;29.70;;
53903;SDS011;39812;52.430;16.936;2022-11-15T15:10:12;67.53;;;27.85;;
53903;SDS011;39812;52.430;16.936;2022-11-15T15:12:38;68.47;;;28.63;;
53903;SDS011;39812;52.430;16.936;2022-11-15T15:15:04;65.88;;;26.83;;
53903;SDS011;39812;52.430;16.936;2022-11-15T15:17:30;64.97;;;26.95;;
53903;SDS011;39812;52.430;16.936;2022-11-15T15:19:56;70.88;;;28.60;;
53903;SDS011;39812;52.430;16.936;2022-11-15T15:22:21;63.80;;;27.73;;
53903;SDS011;39812;52.430;16.936;2022-11-15T15:24:50;63.83;;;27.33;;
53903;SDS011;39812;52.430;16.936;2022-11-15T15:27:15;68.90;;;27.63;;
53903;SDS011;39812;52.430;16.936;2022-11-15T15:29:41;56.10;;;25.23;;
53903;SDS011;39812;52.430;16.936;2022-11-15T15:32:07;69.32;;;27.20;;
53903;SDS011;39812;52.430;16.936;2022-11-15T15:34:33;60.72;;;26.35;;
53903;SDS011;39812;52.430;16.936;2022-11-15T15:37:09;70.30;;;28.30;;
53903;SDS011;39812;52.430;16.936;2022-11-15T15:39:51;65.03;;;25.35;;
53903;SDS011;39812;52.430;16.936;2022-11-15T15:42:17;71.75;;;29.45;;
53903;SDS011;39812;52.430;16.936;2022-11-15T15:44:43;71.38;;;29.40;;
53903;SDS011;39812;52.430;16.936;2022-11-15T15:47:10;67.55;;;27.15;;
53903;SDS011;39812;52.430;16.936;2022-11-15T15:49:37;64.35;;;27.75;;
53903;SDS011;39812;52.430;16.936;2022-11-15T15:52:03;67.40;;;28.70;;